Time;durP1;ratioP1;P1;durP2;ratioP2;P2;SDS_P1;SDS_P2;PMS_P1;PMS_P2;Temp;Humidity;BMP_temperature;BMP_pressure;BME280_temperature;BME280_humidity;BME280_pressure;Samples;Min_cycle;Max_cycle;Signal;HPM_P1;HPM_P2
2021/05/02 07:29:03;;;;;;;;;4.00;3.25;;;;;;;;3567592;39;113278;-79
2021/05/02 12:33:41;;;;;;;;;1.00;1.00;;;;;;;;3538744;39;1749424;-72
2021/05/02 12:36:08;;;;;;;;;4.75;4.00;;;;;;;;3573307;39;114513;-75
2021/05/02 12:38:34;;;;;;;;;6.75;2.75;;;;;;;;3572555;39;112138;-72
2021/05/02 12:41:00;;;;;;;;;2.50;2.00;;;;;;;;3575830;39;113998;-73
2021/05/02 12:43:28;;;;;;;;;2.25;2.25;;;;;;;;3580395;39;113904;-73
2021/05/02 12:45:55;;;;;;;;;2.50;1.50;;;;;;;;3577019;39;112133;-74
2021/05/02 12:48:40;;;;;;;;;2.00;2.00;;;;;;;;3574798;39;113068;-81
2021/05/02 12:51:07;;;;;;;;;2.00;2.00;;;;;;;;3574623;39;114155;-76
2021/05/02 12:53:36;;;;;;;;;2.00;2.00;;;;;;;;3579113;39;112023;-71
2021/05/02 12:56:03;;;;;;;;;2.00;2.00;;;;;;;;3574346;39;114601;-72
2021/05/02 12:58:36;;;;;;;;;2.00;2.00;;;;;;;;3575675;39;112212;-72
2021/05/02 13:01:05;;;;;;;;;2.25;2.00;;;;;;;;3577640;39;114299;-71
2021/05/02 13:03:36;;;;;;;;;3.25;2.75;;;;;;;;3576599;39;113900;-71
2021/05/02 13:06:03;;;;;;;;;3.25;2.00;;;;;;;;3575411;39;111831;-71
2021/05/02 13:08:29;;;;;;;;;3.00;2.50;;;;;;;;3576653;39;113238;-71
2021/05/02 13:10:55;;;;;;;;;3.75;2.25;;;;;;;;3574482;39;114603;-71
2021/05/02 13:13:22;;;;;;;;;2.00;1.75;;;;;;;;3575029;39;112630;-71
2021/05/02 13:15:49;;;;;;;;;0.00;0.00;;;;;;;;3577087;39;113529;-71
2021/05/02 13:18:16;;;;;;;;;4.25;3.00;;;;;;;;3575110;39;112900;-71
2021/05/02 13:20:53;;;;;;;;;2.00;2.00;;;;;;;;3575150;39;113443;-72
2021/05/02 13:23:40;;;;;;;;;2.00;1.00;;;;;;;;3575522;39;114189;-72
2021/05/02 13:26:13;;;;;;;;;2.75;2.75;;;;;;;;3575660;39;112611;-72
2021/05/02 13:28:59;;;;;;;;;4.25;3.00;;;;;;;;3574427;39;113415;-71
2021/05/02 13:31:36;;;;;;;;;2.00;2.00;;;;;;;;3575628;39;114049;-72
2021/05/02 13:34:02;;;;;;;;;2.00;2.00;;;;;;;;3575844;39;112336;-73
2021/05/02 13:36:28;;;;;;;;;3.00;1.00;;;;;;;;3575989;39;113508;-73
2021/05/02 13:38:54;;;;;;;;;2.75;2.50;;;;;;;;3577445;39;113878;-72
2021/05/02 13:41:21;;;;;;;;;3.00;3.00;;;;;;;;3575552;39;113352;-72
2021/05/02 13:43:47;;;;;;;;;3.75;3.25;;;;;;;;3571733;39;113981;-72
2021/05/02 13:46:13;;;;;;;;;4.00;3.50;;;;;;;;3569672;39;112451;-71
2021/05/02 13:48:40;;;;;;;;;3.75;2.00;;;;;;;;3568969;39;113337;-72
2021/05/02 13:51:06;;;;;;;;;5.50;2.25;;;;;;;;3567897;39;112910;-72
2021/05/02 13:53:36;;;;;;;;;3.25;1.00;;;;;;;;3568054;39;111826;-73
2021/05/02 13:56:02;;;;;;;;;3.25;3.00;;;;;;;;3569173;39;113301;-71
2021/05/02 13:58:29;;;;;;;;;4.00;3.00;;;;;;;;3568921;39;114535;-72
2021/05/02 14:00:55;;;;;;;;;3.75;2.50;;;;;;;;3574660;39;112304;-73
2021/05/02 14:03:21;;;;;;;;;4.75;3.00;;;;;;;;3569546;39;114441;-72
2021/05/02 14:05:47;;;;;;;;;2.75;2.75;;;;;;;;3568804;39;112419;-72
2021/05/02 14:08:14;;;;;;;;;2.00;2.00;;;;;;;;3568142;39;114512;-72
2021/05/02 14:10:40;;;;;;;;;2.00;1.50;;;;;;;;3568362;39;114555;-72
2021/05/02 14:13:06;;;;;;;;;6.50;3.00;;;;;;;;3568929;39;112282;-72
2021/05/02 14:15:33;;;;;;;;;2.00;2.00;;;;;;;;3570523;39;113425;-72
2021/05/02 14:17:59;;;;;;;;;4.75;2.00;;;;;;;;3573302;39;113112;-74
2021/05/02 14:20:25;;;;;;;;;3.75;2.50;;;;;;;;3570959;39;112128;-73
2021/05/02 14:22:51;;;;;;;;;4.00;3.00;;;;;;;;3580199;39;113578;-73
2021/05/02 14:25:18;;;;;;;;;2.00;2.00;;;;;;;;3574097;39;111595;-78
2021/05/02 14:27:44;;;;;;;;;2.00;2.00;;;;;;;;3576679;39;112725;-75
2021/05/02 14:30:11;;;;;;;;;4.00;3.00;;;;;;;;3576224;39;113993;-74
2021/05/02 14:32:38;;;;;;;;;2.00;2.00;;;;;;;;3572248;39;112400;-74
2021/05/02 14:35:04;;;;;;;;;2.00;2.00;;;;;;;;3571771;39;113477;-74
2021/05/02 14:37:30;;;;;;;;;2.50;1.25;;;;;;;;3572750;39;113825;-74
2021/05/02 14:39:56;;;;;;;;;2.25;2.25;;;;;;;;3573416;39;112212;-78
2021/05/02 14:42:23;;;;;;;;;2.00;2.00;;;;;;;;3576157;39;112323;-77
2021/05/02 14:44:49;;;;;;;;;3.50;2.00;;;;;;;;3575418;39;111738;-74
2021/05/02 14:47:15;;;;;;;;;1.00;1.00;;;;;;;;3571632;39;113816;-76
2021/05/02 14:49:42;;;;;;;;;2.75;2.00;;;;;;;;3575166;39;113818;-75
2021/05/02 14:52:08;;;;;;;;;1.75;1.00;;;;;;;;3577201;39;111662;-76
2021/05/02 14:54:34;;;;;;;;;5.25;2.00;;;;;;;;3574076;39;112124;-74
2021/05/02 14:57:02;;;;;;;;;2.00;2.00;;;;;;;;3569040;39;114133;-73
2021/05/02 14:59:28;;;;;;;;;2.00;2.00;;;;;;;;3568609;39;111909;-73
2021/05/02 15:01:54;;;;;;;;;1.00;1.00;;;;;;;;3568547;39;112898;-73
2021/05/02 15:04:20;;;;;;;;;4.00;1.25;;;;;;;;3573821;39;114043;-73
2021/05/02 15:06:47;;;;;;;;;2.75;2.00;;;;;;;;3570493;39;113608;-72
2021/05/02 15:09:13;;;;;;;;;3.00;3.00;;;;;;;;3571523;39;113969;-71
2021/05/02 15:11:39;;;;;;;;;3.00;3.00;;;;;;;;3571899;39;112290;-74
2021/05/02 15:14:05;;;;;;;;;3.75;2.00;;;;;;;;3566071;39;112372;-73
2021/05/02 15:16:31;;;;;;;;;1.75;1.75;;;;;;;;3568140;39;115606;-73
2021/05/02 15:18:57;;;;;;;;;2.25;2.00;;;;;;;;3570837;39;112007;-71
2021/05/02 15:21:23;;;;;;;;;1.50;1.50;;;;;;;;3569411;39;113223;-78
2021/05/02 15:23:50;;;;;;;;;1.50;1.50;;;;;;;;3569292;39;114066;-73
2021/05/02 15:27:38;;;;;;;;;5.80;2.80;;;;;;;;3573103;39;112011;-71
2021/05/02 15:30:06;;;;;;;;;2.75;0.00;;;;;;;;3565316;39;114236;-72
2021/05/02 15:32:32;;;;;;;;;3.50;1.00;;;;;;;;3565745;39;111751;-73
2021/05/02 15:34:58;;;;;;;;;1.25;0.50;;;;;;;;3565490;39;112602;-68
2021/05/02 15:37:24;;;;;;;;;1.25;0.00;;;;;;;;3565877;39;114442;-69
2021/05/02 15:39:50;;;;;;;;;1.00;1.00;;;;;;;;3566183;39;112283;-73
2021/05/02 15:42:16;;;;;;;;;1.00;1.00;;;;;;;;3565954;39;113275;-75
2021/05/02 15:44:43;;;;;;;;;1.00;1.00;;;;;;;;3565105;39;113875;-75
2021/05/02 15:47:09;;;;;;;;;1.00;1.00;;;;;;;;3569289;39;111877;-77
2021/05/02 15:49:36;;;;;;;;;1.00;0.00;;;;;;;;3565741;39;115553;-76
2021/05/02 15:52:02;;;;;;;;;1.00;1.00;;;;;;;;3565641;39;113172;-75
2021/05/02 15:54:28;;;;;;;;;1.75;1.00;;;;;;;;3565029;39;113354;-76
2021/05/02 15:56:56;;;;;;;;;1.00;0.75;;;;;;;;3566757;39;113809;-75
2021/05/02 15:59:22;;;;;;;;;2.00;1.00;;;;;;;;3564870;39;111838;-81
2021/05/02 16:01:49;;;;;;;;;0.75;0.00;;;;;;;;3565115;39;113821;-72
2021/05/02 16:04:15;;;;;;;;;6.00;1.00;;;;;;;;3564165;39;113898;-71
2021/05/02 16:06:41;;;;;;;;;2.00;1.00;;;;;;;;3564633;39;111879;-72
2021/05/02 16:09:07;;;;;;;;;1.00;1.00;;;;;;;;3566920;39;113956;-72
2021/05/02 16:11:33;;;;;;;;;1.25;1.25;;;;;;;;3564739;39;112196;-73
2021/05/02 16:14:00;;;;;;;;;2.50;0.75;;;;;;;;3566676;39;113305;-73
2021/05/02 16:16:26;;;;;;;;;0.50;0.50;;;;;;;;3564758;39;113869;-73
2021/05/02 16:18:55;;;;;;;;;1.75;1.00;;;;;;;;3564790;39;112340;-72
2021/05/02 16:21:21;;;;;;;;;3.00;1.00;;;;;;;;3564968;39;113336;-73
2021/05/02 16:23:47;;;;;;;;;1.50;1.50;;;;;;;;3565539;39;114550;-73
2021/05/02 16:26:13;;;;;;;;;3.25;2.25;;;;;;;;3566346;39;112996;-74
2021/05/02 16:28:39;;;;;;;;;3.00;2.00;;;;;;;;3567287;39;114946;-70
2021/05/02 16:31:05;;;;;;;;;1.00;0.75;;;;;;;;3566379;39;114059;-72
2021/05/02 16:33:32;;;;;;;;;1.25;1.00;;;;;;;;3567408;39;114760;-70
2021/05/02 16:35:59;;;;;;;;;3.00;1.00;;;;;;;;3562803;39;113986;-69
2021/05/02 16:38:25;;;;;;;;;0.00;0.00;;;;;;;;3558602;39;112002;-72
2021/05/02 16:40:51;;;;;;;;;1.25;1.00;;;;;;;;3556030;39;113304;-71
2021/05/02 16:43:17;;;;;;;;;1.25;1.25;;;;;;;;3556403;39;114101;-72
2021/05/02 16:45:43;;;;;;;;;1.00;1.00;;;;;;;;3556031;39;113854;-72
2021/05/02 16:48:09;;;;;;;;;1.00;1.00;;;;;;;;3557204;39;113268;-73
2021/05/02 16:50:35;;;;;;;;;2.50;1.00;;;;;;;;3558141;39;113255;-73
2021/05/02 16:53:03;;;;;;;;;1.00;1.00;;;;;;;;3562356;39;112282;-77
2021/05/02 16:55:29;;;;;;;;;1.50;1.00;;;;;;;;3558309;39;113966;-73
2021/05/02 16:57:55;;;;;;;;;1.00;1.00;;;;;;;;3557853;39;112154;-73
2021/05/02 17:00:21;;;;;;;;;1.75;1.00;;;;;;;;3558346;39;114715;-72
2021/05/02 17:02:47;;;;;;;;;1.00;0.50;;;;;;;;3557654;39;114150;-69
2021/05/02 17:05:14;;;;;;;;;1.00;1.00;;;;;;;;3558919;39;112236;-71
2021/05/02 17:07:42;;;;;;;;;3.00;1.00;;;;;;;;3558280;39;113662;-70
2021/05/02 17:10:09;;;;;;;;;0.00;0.00;;;;;;;;3558891;39;114552;-74
2021/05/02 17:12:35;;;;;;;;;1.25;1.00;;;;;;;;3557991;39;112007;-71
2021/05/02 17:15:01;;;;;;;;;2.75;1.00;;;;;;;;3561712;39;113069;-73
2021/05/02 17:17:27;;;;;;;;;0.75;0.75;;;;;;;;3558307;39;112288;-73
2021/05/02 17:19:53;;;;;;;;;1.00;0.00;;;;;;;;3557508;39;113155;-73
2021/05/02 17:22:19;;;;;;;;;1.00;1.00;;;;;;;;3557495;39;113678;-74
2021/05/02 17:24:45;;;;;;;;;2.00;1.00;;;;;;;;3557607;39;112539;-74
2021/05/02 17:27:12;;;;;;;;;1.00;1.00;;;;;;;;3558669;39;113089;-77
2021/05/02 17:29:38;;;;;;;;;2.25;2.25;;;;;;;;3559054;39;114224;-73
2021/05/02 17:32:05;;;;;;;;;5.00;1.00;;;;;;;;3557403;39;111827;-76
2021/05/02 17:34:31;;;;;;;;;0.25;0.25;;;;;;;;3555948;39;112293;-77
2021/05/02 17:36:57;;;;;;;;;2.00;2.00;;;;;;;;3561360;39;111936;-76
2021/05/02 17:39:23;;;;;;;;;1.75;1.75;;;;;;;;3558462;39;113336;-74
2021/05/02 17:41:49;;;;;;;;;3.00;2.00;;;;;;;;3558449;39;114223;-73
2021/05/02 17:44:16;;;;;;;;;1.50;1.50;;;;;;;;3558620;39;112771;-72
2021/05/02 17:46:42;;;;;;;;;3.25;1.75;;;;;;;;3558583;39;113183;-71
2021/05/02 17:49:08;;;;;;;;;2.25;2.25;;;;;;;;3557827;39;113975;-69
2021/05/02 17:51:36;;;;;;;;;1.75;1.75;;;;;;;;3558543;39;112261;-72
2021/05/02 17:54:02;;;;;;;;;1.50;1.25;;;;;;;;3557837;39;113272;-75
2021/05/02 17:56:28;;;;;;;;;1.00;1.00;;;;;;;;3562833;39;114645;-80
2021/05/02 17:58:55;;;;;;;;;3.00;2.25;;;;;;;;3564018;39;113663;-80
2021/05/02 18:01:22;;;;;;;;;2.25;1.25;;;;;;;;3560179;39;113952;-75
2021/05/02 18:03:48;;;;;;;;;2.25;2.00;;;;;;;;3558758;39;111829;-75
2021/05/02 18:06:14;;;;;;;;;2.00;2.00;;;;;;;;3560113;39;113778;-79
2021/05/02 18:08:40;;;;;;;;;2.25;1.50;;;;;;;;3559678;39;113205;-76
2021/05/02 18:11:06;;;;;;;;;2.00;2.00;;;;;;;;3558897;39;111888;-83
2021/05/02 18:13:32;;;;;;;;;1.00;1.00;;;;;;;;3558208;39;113563;-84
2021/05/02 18:15:58;;;;;;;;;1.75;1.75;;;;;;;;3559851;39;112985;-87
2021/05/02 18:18:25;;;;;;;;;2.00;2.00;;;;;;;;3561255;39;111966;-72
2021/05/02 18:20:51;;;;;;;;;1.25;1.25;;;;;;;;3555755;39;113783;-72
2021/05/02 18:23:17;;;;;;;;;1.00;1.00;;;;;;;;3556996;39;112207;-72
2021/05/02 18:25:45;;;;;;;;;3.00;2.00;;;;;;;;3556315;39;113600;-73
2021/05/02 18:28:11;;;;;;;;;2.00;2.00;;;;;;;;3557428;39;114293;-73
2021/05/02 18:30:37;;;;;;;;;3.50;1.25;;;;;;;;3557319;39;112036;-74
2021/05/02 18:33:03;;;;;;;;;5.75;2.00;;;;;;;;3556113;39;114341;-73
2021/05/02 18:35:30;;;;;;;;;2.25;2.25;;;;;;;;3556707;39;113793;-74
2021/05/02 19:07:58;;;;;;;;;3.00;3.00;;;;;;;;3522768;39;112209;-85
2021/05/02 19:10:29;;;;;;;;;6.00;3.00;;;;;;;;3523398;39;113231;-82
2021/05/02 19:12:55;;;;;;;;;6.75;4.50;;;;;;;;3522354;39;115902;-83
2021/05/02 19:15:22;;;;;;;;;6.50;2.50;;;;;;;;3523057;39;111802;-84
2021/05/02 19:17:48;;;;;;;;;2.25;1.00;;;;;;;;3523115;39;113324;-77
2021/05/02 19:20:14;;;;;;;;;4.50;2.00;;;;;;;;3522316;39;114103;-80
2021/05/02 19:22:40;;;;;;;;;7.50;3.00;;;;;;;;3522818;39;112073;-81
2021/05/02 19:25:08;;;;;;;;;5.25;2.00;;;;;;;;3522753;39;113457;-85
2021/05/02 19:27:34;;;;;;;;;3.00;3.00;;;;;;;;3522701;39;113892;-84
2021/05/02 19:30:01;;;;;;;;;2.75;2.75;;;;;;;;3525716;39;111804;-85
2021/05/02 19:32:27;;;;;;;;;3.00;3.00;;;;;;;;3522586;39;113234;-85
2021/05/02 19:34:53;;;;;;;;;4.00;3.00;;;;;;;;3522455;39;111994;-81
2021/05/02 19:37:19;;;;;;;;;4.50;2.75;;;;;;;;3522898;39;113590;-81
2021/05/02 19:39:45;;;;;;;;;2.50;2.00;;;;;;;;3522603;39;113759;-82
2021/05/02 19:42:12;;;;;;;;;6.25;3.00;;;;;;;;3523056;39;112410;-84
2021/05/02 19:44:38;;;;;;;;;9.00;2.00;;;;;;;;3521591;39;113191;-72
2021/05/02 19:47:06;;;;;;;;;2.75;2.00;;;;;;;;3522338;39;113794;-77
2021/05/02 19:49:32;;;;;;;;;3.00;1.50;;;;;;;;3525788;39;112269;-79
2021/05/02 19:51:58;;;;;;;;;4.75;2.25;;;;;;;;3519714;39;114548;-76
2021/05/02 19:54:25;;;;;;;;;7.25;4.75;;;;;;;;3522640;39;111931;-77
2021/05/02 19:56:51;;;;;;;;;2.00;2.00;;;;;;;;3522696;39;114109;-75
2021/05/02 19:59:19;;;;;;;;;5.75;3.25;;;;;;;;3522029;39;115473;-78
2021/05/02 20:01:45;;;;;;;;;4.25;2.00;;;;;;;;3522652;39;112108;-79
2021/05/02 20:04:14;;;;;;;;;6.00;2.25;;;;;;;;3521502;39;113521;-80
2021/05/02 20:06:40;;;;;;;;;0.00;0.00;;;;;;;;3518710;39;114458;-80
2021/05/02 20:11:32;;;;;;;;;4.75;2.00;;;;;;;;3523782;39;128850;-81
2021/05/02 20:13:58;;;;;;;;;9.00;5.00;;;;;;;;3522872;39;112501;-82
2021/05/02 20:16:25;;;;;;;;;3.25;3.25;;;;;;;;3523748;39;113213;-77
2021/05/02 20:18:51;;;;;;;;;5.00;5.00;;;;;;;;3522891;39;113704;-74
2021/05/02 20:21:19;;;;;;;;;4.75;4.75;;;;;;;;3523220;39;112104;-75
2021/05/02 20:23:46;;;;;;;;;4.00;1.00;;;;;;;;3523785;39;113282;-78
2021/05/02 20:26:12;;;;;;;;;4.75;1.75;;;;;;;;3521526;39;113851;-76
2021/05/02 20:28:38;;;;;;;;;3.50;3.00;;;;;;;;3523220;39;112075;-77
2021/05/02 20:31:04;;;;;;;;;5.25;3.00;;;;;;;;3522187;39;113304;-77
2021/05/02 20:33:42;;;;;;;;;8.50;2.75;;;;;;;;3523273;39;114054;-75
2021/05/02 20:36:09;;;;;;;;;5.00;4.00;;;;;;;;3523365;39;113326;-74
2021/05/02 20:38:35;;;;;;;;;7.25;2.00;;;;;;;;3523035;39;113514;-77
2021/05/02 20:41:01;;;;;;;;;4.75;4.00;;;;;;;;3522417;39;113321;-79
2021/05/02 20:43:28;;;;;;;;;7.00;4.50;;;;;;;;3522365;39;113312;-77
2021/05/02 20:45:54;;;;;;;;;3.50;2.00;;;;;;;;3522219;39;113724;-76
2021/05/02 20:48:20;;;;;;;;;4.25;4.00;;;;;;;;3522539;39;112413;-76
2021/05/02 20:50:47;;;;;;;;;2.00;2.00;;;;;;;;3523000;39;113846;-77
2021/05/02 20:53:13;;;;;;;;;3.25;3.25;;;;;;;;3522595;39;114261;-78
2021/05/02 20:55:39;;;;;;;;;4.75;2.00;;;;;;;;3525779;39;112372;-78
2021/05/02 20:58:05;;;;;;;;;4.00;2.00;;;;;;;;3522379;39;114274;-76
2021/05/02 21:00:31;;;;;;;;;2.25;2.25;;;;;;;;3523587;39;111903;-78
2021/05/02 21:02:57;;;;;;;;;4.25;3.00;;;;;;;;3523489;39;113224;-78
2021/05/02 21:05:23;;;;;;;;;2.00;2.00;;;;;;;;3522765;39;115102;-77
2021/05/02 21:07:50;;;;;;;;;6.25;4.50;;;;;;;;3523353;39;112272;-77
2021/05/02 21:10:17;;;;;;;;;1.25;1.25;;;;;;;;3523467;39;114025;-78
2021/05/02 21:12:43;;;;;;;;;3.00;1.00;;;;;;;;3523844;39;114626;-79
2021/05/02 21:15:11;;;;;;;;;3.00;2.00;;;;;;;;3524046;39;112185;-78
2021/05/02 21:17:37;;;;;;;;;5.75;3.00;;;;;;;;3526511;39;113983;-77
2021/05/02 21:20:04;;;;;;;;;4.00;2.75;;;;;;;;3523922;39;112039;-79
2021/05/02 21:22:30;;;;;;;;;3.50;2.50;;;;;;;;3524096;39;112822;-76
2021/05/02 21:24:57;;;;;;;;;4.50;4.50;;;;;;;;3523520;39;114059;-78
2021/05/02 21:27:23;;;;;;;;;3.00;3.00;;;;;;;;3524009;39;112280;-77
2021/05/02 21:29:50;;;;;;;;;4.50;4.50;;;;;;;;3524005;39;113506;-78
2021/05/02 21:32:16;;;;;;;;;7.25;4.00;;;;;;;;3523738;39;114359;-78
2021/05/02 21:34:43;;;;;;;;;5.00;3.50;;;;;;;;3524053;39;111982;-79
2021/05/02 21:37:09;;;;;;;;;6.00;3.00;;;;;;;;3524058;39;113548;-77
2021/05/02 21:39:35;;;;;;;;;2.25;2.25;;;;;;;;3526275;39;113802;-79
2021/05/02 21:42:02;;;;;;;;;5.00;3.50;;;;;;;;3523908;39;113497;-78
2021/05/02 21:44:28;;;;;;;;;3.00;2.75;;;;;;;;3521568;39;113817;-78
2021/05/02 21:46:54;;;;;;;;;1.50;1.50;;;;;;;;3523842;39;112076;-78
2021/05/02 21:49:22;;;;;;;;;5.00;2.00;;;;;;;;3523840;39;112804;-78
2021/05/02 21:51:48;;;;;;;;;3.00;3.00;;;;;;;;3523481;39;113968;-78
2021/05/02 21:54:14;;;;;;;;;4.50;3.00;;;;;;;;3523907;39;111859;-77
2021/05/02 21:56:40;;;;;;;;;2.00;2.00;;;;;;;;3523874;39;113294;-78
2021/05/02 21:59:07;;;;;;;;;7.50;3.00;;;;;;;;3525964;39;113659;-78
2021/05/02 22:01:33;;;;;;;;;2.50;2.50;;;;;;;;3523840;39;113242;-78
2021/05/02 22:03:59;;;;;;;;;4.00;2.25;;;;;;;;3523410;39;114233;-77
2021/05/02 22:06:25;;;;;;;;;2.75;2.75;;;;;;;;3523865;39;112211;-77
2021/05/02 22:08:52;;;;;;;;;2.00;2.00;;;;;;;;3523854;39;113350;-77
2021/05/02 22:11:19;;;;;;;;;2.75;2.75;;;;;;;;3523434;39;114383;-78
2021/05/02 22:13:45;;;;;;;;;6.00;3.00;;;;;;;;3523906;39;112766;-77
2021/05/02 22:16:12;;;;;;;;;2.50;2.00;;;;;;;;3523866;39;113394;-78
2021/05/02 22:18:39;;;;;;;;;3.00;2.00;;;;;;;;3523663;39;113774;-78
2021/05/02 22:21:05;;;;;;;;;6.00;1.50;;;;;;;;3526576;39;112880;-78
2021/05/02 22:23:34;;;;;;;;;6.00;2.00;;;;;;;;3523397;39;114236;-77
2021/05/02 22:26:00;;;;;;;;;3.00;3.00;;;;;;;;3523830;39;111731;-78
2021/05/02 22:28:26;;;;;;;;;2.25;2.25;;;;;;;;3523847;39;113818;-78
2021/05/02 22:30:54;;;;;;;;;5.00;5.00;;;;;;;;3523263;39;114419;-77
2021/05/02 22:33:21;;;;;;;;;3.00;2.25;;;;;;;;3523716;39;112293;-77
2021/05/02 22:35:47;;;;;;;;;5.00;3.00;;;;;;;;3523518;39;113196;-77
2021/05/02 22:38:13;;;;;;;;;1.75;1.00;;;;;;;;3523209;39;114176;-78
2021/05/02 22:40:40;;;;;;;;;3.50;3.50;;;;;;;;3523842;39;112029;-78
2021/05/02 22:43:06;;;;;;;;;6.25;3.50;;;;;;;;3525861;39;113831;-78
2021/05/02 22:45:32;;;;;;;;;3.50;3.50;;;;;;;;3523844;39;113167;-78
2021/05/02 22:47:58;;;;;;;;;7.00;2.00;;;;;;;;3523712;39;113161;-78
2021/05/02 22:50:25;;;;;;;;;3.00;3.00;;;;;;;;3523473;39;114643;-78
2021/05/02 22:52:52;;;;;;;;;4.00;2.25;;;;;;;;3521849;39;113935;-76
2021/05/02 22:55:18;;;;;;;;;13.75;5.00;;;;;;;;3526752;39;113218;-77
2021/05/02 22:57:44;;;;;;;;;5.00;3.50;;;;;;;;3527223;39;114326;-78
2021/05/02 23:00:11;;;;;;;;;5.00;3.00;;;;;;;;3524454;39;112430;-77
2021/05/02 23:02:37;;;;;;;;;4.75;2.75;;;;;;;;3523721;39;113563;-76
2021/05/02 23:05:04;;;;;;;;;5.00;5.00;;;;;;;;3525680;39;113578;-76
2021/05/02 23:07:30;;;;;;;;;1.25;1.25;;;;;;;;3523851;39;114045;-75
2021/05/02 23:09:57;;;;;;;;;8.00;3.00;;;;;;;;3521321;39;113871;-77
2021/05/02 23:12:23;;;;;;;;;4.00;4.00;;;;;;;;3523783;39;111949;-78
2021/05/02 23:14:49;;;;;;;;;5.25;3.00;;;;;;;;3523554;39;113237;-75
2021/05/02 23:17:16;;;;;;;;;3.00;3.00;;;;;;;;3523307;39;113915;-75
2021/05/02 23:19:42;;;;;;;;;5.25;5.00;;;;;;;;3523507;39;111915;-75
2021/05/02 23:22:08;;;;;;;;;3.00;3.00;;;;;;;;3523637;39;113310;-75
2021/05/02 23:24:35;;;;;;;;;6.50;4.00;;;;;;;;3523128;39;113968;-74
2021/05/02 23:27:01;;;;;;;;;3.00;2.75;;;;;;;;3526013;39;112084;-76
2021/05/02 23:29:27;;;;;;;;;3.00;3.00;;;;;;;;3523203;39;113957;-76
2021/05/02 23:31:53;;;;;;;;;2.00;2.00;;;;;;;;3523432;39;112208;-74
2021/05/02 23:34:19;;;;;;;;;3.00;3.00;;;;;;;;3523401;39;114144;-76
2021/05/02 23:36:45;;;;;;;;;5.00;5.00;;;;;;;;3522873;39;113861;-75
2021/05/02 23:39:13;;;;;;;;;6.00;2.00;;;;;;;;3523280;39;112602;-75
2021/05/02 23:41:42;;;;;;;;;3.00;2.75;;;;;;;;3523320;39;113438;-76
2021/05/02 23:44:08;;;;;;;;;5.75;2.75;;;;;;;;3522870;39;113891;-76
2021/05/02 23:46:34;;;;;;;;;3.50;2.50;;;;;;;;3523307;39;112190;-77
2021/05/02 23:49:00;;;;;;;;;5.50;3.50;;;;;;;;3526385;39;114074;-76
2021/05/02 23:51:26;;;;;;;;;3.00;3.00;;;;;;;;3522664;39;111729;-75
2021/05/02 23:53:52;;;;;;;;;3.25;3.25;;;;;;;;3524552;39;113985;-78
2021/05/02 23:56:18;;;;;;;;;2.75;2.75;;;;;;;;3524103;39;113949;-77
2021/05/02 23:58:45;;;;;;;;;3.00;3.00;;;;;;;;3524535;39;111885;-76
